Japan Airlines Virtual Airport Information Service

Ashgabat International Airport

ICAO: UTAA Country: Turkmenistan
Latitude: 37.9868 Longitude: 58.361
Latest Arrival : SCC875 (OMDB-UTAA) Latest Departure : SCC875 (UTAA-UAAA)


WX CaptureLIVE
Data provided by noaa.gov | Fetched at 16:33:27

METAR : UTAA 291600Z 23004KT 9999 NSC 16/M04 Q1023 R88/CLRD70 NOSIG

TAF : UTAA 291045Z 2912/3012 30016KT 6000 SCT100 TEMPO 2912/2917 33012G22KT TEMPO 2918/2924 24012KT BECMG 3002/3004 03016KT TEMPO 3006/3012 09012G22KT


Runway Data for UTAA
Data provided by openaviationdata.com

Runway ID Mag Var Hdg Length Elevation Surface ILS Freq ILS Id ILS Slope
11 4 106° 2953 ft 692 ft Asphalt -- -- --
12L 4 115° 12178 ft 692 ft Concrete -- -- --
12R 4 115° 9910 ft 692 ft Concrete -- -- --
12C 4 115° 5906 ft 692 ft Grass -- -- --
29 4 286° 2953 ft 692 ft Asphalt -- -- --
30L 4 295° 9910 ft 692 ft Concrete -- -- --
30R 4 295° 12178 ft 692 ft Concrete -- -- --
30C 4 295° 5906 ft 692 ft Grass -- -- --

Ashgabat International Airport, Turkmenistan
Use only for reference purposes



Not for navigational purposes.